sensor_id;sensor_type;location;lat;lon;timestamp;temperature;humidity
65876;HTU21D;52657;51.128;5.938;2023-05-20T00:01:27;17.07;44.82
65876;HTU21D;52657;51.128;5.938;2023-05-20T00:03:56;17.01;45.03
65876;HTU21D;52657;51.128;5.938;2023-05-20T00:06:25;16.99;45.22
65876;HTU21D;52657;51.128;5.938;2023-05-20T00:08:50;16.96;45.27
65876;HTU21D;52657;51.128;5.938;2023-05-20T00:11:16;16.93;45.37
65876;HTU21D;52657;51.128;5.938;2023-05-20T00:13:47;16.89;45.58
65876;HTU21D;52657;51.128;5.938;2023-05-20T00:16:12;16.84;45.75
65876;HTU21D;52657;51.128;5.938;2023-05-20T00:18:38;16.82;45.80
65876;HTU21D;52657;51.128;5.938;2023-05-20T00:21:04;16.81;45.86
65876;HTU21D;52657;51.128;5.938;2023-05-20T00:23:30;16.80;46.00
65876;HTU21D;52657;51.128;5.938;2023-05-20T00:25:55;16.79;46.07
65876;HTU21D;52657;51.128;5.938;2023-05-20T00:28:21;16.73;46.13
65876;HTU21D;52657;51.128;5.938;2023-05-20T00:30:48;16.69;46.36
65876;HTU21D;52657;51.128;5.938;2023-05-20T00:33:13;16.64;46.48
65876;HTU21D;52657;51.128;5.938;2023-05-20T00:35:39;16.59;46.66
65876;HTU21D;52657;51.128;5.938;2023-05-20T00:38:05;16.59;46.80
65876;HTU21D;52657;51.128;5.938;2023-05-20T00:40:30;16.57;46.86
65876;HTU21D;52657;51.128;5.938;2023-05-20T00:42:56;16.50;47.00
65876;HTU21D;52657;51.128;5.938;2023-05-20T00:45:22;16.42;47.21
65876;HTU21D;52657;51.128;5.938;2023-05-20T00:47:48;16.42;47.23
65876;HTU21D;52657;51.128;5.938;2023-05-20T00:50:19;16.41;47.31
65876;HTU21D;52657;51.128;5.938;2023-05-20T00:52:45;16.39;47.40
65876;HTU21D;52657;51.128;5.938;2023-05-20T00:55:14;16.35;47.53
65876;HTU21D;52657;51.128;5.938;2023-05-20T00:57:40;16.33;47.47
65876;HTU21D;52657;51.128;5.938;2023-05-20T01:00:07;16.27;47.76
65876;HTU21D;52657;51.128;5.938;2023-05-20T01:02:33;16.24;47.76
65876;HTU21D;52657;51.128;5.938;2023-05-20T01:05:02;16.20;47.86
65876;HTU21D;52657;51.128;5.938;2023-05-20T01:07:28;16.13;48.05
65876;HTU21D;52657;51.128;5.938;2023-05-20T01:09:53;16.12;48.11
65876;HTU21D;52657;51.128;5.938;2023-05-20T01:12:41;16.04;48.28
65876;HTU21D;52657;51.128;5.938;2023-05-20T01:15:10;15.98;48.47
65876;HTU21D;52657;51.128;5.938;2023-05-20T01:17:43;16.00;48.46
65876;HTU21D;52657;51.128;5.938;2023-05-20T01:20:13;16.02;48.46
65876;HTU21D;52657;51.128;5.938;2023-05-20T01:22:48;15.98;48.57
65876;HTU21D;52657;51.128;5.938;2023-05-20T01:25:14;15.97;48.73
65876;HTU21D;52657;51.128;5.938;2023-05-20T01:27:40;15.86;48.93
65876;HTU21D;52657;51.128;5.938;2023-05-20T01:30:07;15.81;49.15
65876;HTU21D;52657;51.128;5.938;2023-05-20T01:32:42;15.74;49.38
65876;HTU21D;52657;51.128;5.938;2023-05-20T01:35:14;15.72;49.55
65876;HTU21D;52657;51.128;5.938;2023-05-20T01:37:42;15.67;49.67
65876;HTU21D;52657;51.128;5.938;2023-05-20T01:40:13;15.65;49.79
65876;HTU21D;52657;51.128;5.938;2023-05-20T01:42:42;15.60;49.88
65876;HTU21D;52657;51.128;5.938;2023-05-20T01:45:08;15.58;50.01
65876;HTU21D;52657;51.128;5.938;2023-05-20T01:47:34;15.58;50.08
65876;HTU21D;52657;51.128;5.938;2023-05-20T01:49:59;15.54;50.24
65876;HTU21D;52657;51.128;5.938;2023-05-20T01:52:28;15.47;50.43
65876;HTU21D;52657;51.128;5.938;2023-05-20T01:54:53;15.45;50.59
65876;HTU21D;52657;51.128;5.938;2023-05-20T01:57:22;15.45;50.56
65876;HTU21D;52657;51.128;5.938;2023-05-20T01:59:51;15.44;50.63
65876;HTU21D;52657;51.128;5.938;2023-05-20T02:02:17;15.43;50.61
65876;HTU21D;52657;51.128;5.938;2023-05-20T02:04:45;15.39;50.75
65876;HTU21D;52657;51.128;5.938;2023-05-20T02:07:17;15.30;51.03
65876;HTU21D;52657;51.128;5.938;2023-05-20T02:09:44;15.22;51.35
65876;HTU21D;52657;51.128;5.938;2023-05-20T02:12:10;15.19;51.51
65876;HTU21D;52657;51.128;5.938;2023-05-20T02:14:45;15.19;51.56
65876;HTU21D;52657;51.128;5.938;2023-05-20T02:17:12;15.15;51.69
65876;HTU21D;52657;51.128;5.938;2023-05-20T02:19:41;15.14;51.84
65876;HTU21D;52657;51.128;5.938;2023-05-20T02:22:07;15.06;52.07
65876;HTU21D;52657;51.128;5.938;2023-05-20T02:24:32;14.99;52.26
65876;HTU21D;52657;51.128;5.938;2023-05-20T02:26:58;14.95;52.52
65876;HTU21D;52657;51.128;5.938;2023-05-20T02:29:25;14.92;52.63
65876;HTU21D;52657;51.128;5.938;2023-05-20T02:31:51;14.86;52.85
65876;HTU21D;52657;51.128;5.938;2023-05-20T02:34:17;14.86;52.94
65876;HTU21D;52657;51.128;5.938;2023-05-20T02:36:43;14.87;52.88
65876;HTU21D;52657;51.128;5.938;2023-05-20T02:39:09;14.85;53.01
65876;HTU21D;52657;51.128;5.938;2023-05-20T02:41:38;14.82;53.25
65876;HTU21D;52657;51.128;5.938;2023-05-20T02:44:04;14.77;53.41
65876;HTU21D;52657;51.128;5.938;2023-05-20T02:46:30;14.72;53.54
65876;HTU21D;52657;51.128;5.938;2023-05-20T02:48:56;14.70;53.70
65876;HTU21D;52657;51.128;5.938;2023-05-20T02:51:22;14.69;53.74
65876;HTU21D;52657;51.128;5.938;2023-05-20T02:53:51;14.66;53.91
65876;HTU21D;52657;51.128;5.938;2023-05-20T02:56:17;14.64;54.01
65876;HTU21D;52657;51.128;5.938;2023-05-20T02:58:46;14.59;54.23
65876;HTU21D;52657;51.128;5.938;2023-05-20T03:01:12;14.64;54.17
65876;HTU21D;52657;51.128;5.938;2023-05-20T03:03:42;14.63;54.16
65876;HTU21D;52657;51.128;5.938;2023-05-20T03:06:07;14.59;54.39
65876;HTU21D;52657;51.128;5.938;2023-05-20T03:08:33;14.58;54.46
65876;HTU21D;52657;51.128;5.938;2023-05-20T03:11:01;14.60;54.39
65876;HTU21D;52657;51.128;5.938;2023-05-20T03:13:27;14.56;54.52
65876;HTU21D;52657;51.128;5.938;2023-05-20T03:15:55;14.51;54.75
65876;HTU21D;52657;51.128;5.938;2023-05-20T03:18:22;14.53;54.78
65876;HTU21D;52657;51.128;5.938;2023-05-20T03:20:48;14.51;54.90
65876;HTU21D;52657;51.128;5.938;2023-05-20T03:23:13;14.47;55.10
65876;HTU21D;52657;51.128;5.938;2023-05-20T03:25:39;14.45;55.20
65876;HTU21D;52657;51.128;5.938;2023-05-20T03:28:05;14.35;55.47
65876;HTU21D;52657;51.128;5.938;2023-05-20T03:30:33;14.36;55.71
65876;HTU21D;52657;51.128;5.938;2023-05-20T03:32:58;14.33;55.82
65876;HTU21D;52657;51.128;5.938;2023-05-20T03:35:27;14.27;55.96
65876;HTU21D;52657;51.128;5.938;2023-05-20T03:37:54;14.25;56.15
65876;HTU21D;52657;51.128;5.938;2023-05-20T03:40:30;14.26;56.19
65876;HTU21D;52657;51.128;5.938;2023-05-20T03:42:56;14.26;56.29
65876;HTU21D;52657;51.128;5.938;2023-05-20T03:45:22;14.25;56.39
65876;HTU21D;52657;51.128;5.938;2023-05-20T03:47:57;14.23;56.58
65876;HTU21D;52657;51.128;5.938;2023-05-20T03:50:23;14.21;56.76
65876;HTU21D;52657;51.128;5.938;2023-05-20T03:52:48;14.21;56.85
65876;HTU21D;52657;51.128;5.938;2023-05-20T03:55:17;14.22;56.92
65876;HTU21D;52657;51.128;5.938;2023-05-20T03:57:45;14.29;56.88
65876;HTU21D;52657;51.128;5.938;2023-05-20T04:00:11;14.33;56.83
65876;HTU21D;52657;51.128;5.938;2023-05-20T04:02:44;14.29;56.90
65876;HTU21D;52657;51.128;5.938;2023-05-20T04:05:18;14.26;57.02
65876;HTU21D;52657;51.128;5.938;2023-05-20T04:07:45;14.25;57.20
65876;HTU21D;52657;51.128;5.938;2023-05-20T04:10:12;14.25;57.24
65876;HTU21D;52657;51.128;5.938;2023-05-20T04:12:37;14.23;57.45
65876;HTU21D;52657;51.128;5.938;2023-05-20T04:15:05;14.22;57.46
65876;HTU21D;52657;51.128;5.938;2023-05-20T04:17:38;14.24;57.49
65876;HTU21D;52657;51.128;5.938;2023-05-20T04:20:05;14.28;57.48
65876;HTU21D;52657;51.128;5.938;2023-05-20T04:22:33;14.30;57.51
65876;HTU21D;52657;51.128;5.938;2023-05-20T04:25:02;14.34;57.50
65876;HTU21D;52657;51.128;5.938;2023-05-20T04:27:29;14.43;57.37
65876;HTU21D;52657;51.128;5.938;2023-05-20T04:29:55;14.56;57.13
65876;HTU21D;52657;51.128;5.938;2023-05-20T04:32:23;14.68;56.90
65876;HTU21D;52657;51.128;5.938;2023-05-20T04:34:52;14.93;56.83
65876;HTU21D;52657;51.128;5.938;2023-05-20T04:37:20;15.43;55.74
65876;HTU21D;52657;51.128;5.938;2023-05-20T04:39:46;15.92;54.44
65876;HTU21D;52657;51.128;5.938;2023-05-20T04:42:14;16.35;53.14
65876;HTU21D;52657;51.128;5.938;2023-05-20T04:44:43;16.73;52.02
65876;HTU21D;52657;51.128;5.938;2023-05-20T04:47:10;17.02;50.94
65876;HTU21D;52657;51.128;5.938;2023-05-20T04:49:37;17.13;50.35
65876;HTU21D;52657;51.128;5.938;2023-05-20T04:52:05;17.26;49.27
65876;HTU21D;52657;51.128;5.938;2023-05-20T04:54:31;17.10;49.30
65876;HTU21D;52657;51.128;5.938;2023-05-20T04:56:58;16.71;50.43
65876;HTU21D;52657;51.128;5.938;2023-05-20T04:59:24;16.39;51.62
65876;HTU21D;52657;51.128;5.938;2023-05-20T05:01:50;16.13;52.56
65876;HTU21D;52657;51.128;5.938;2023-05-20T05:04:15;15.88;53.27
65876;HTU21D;52657;51.128;5.938;2023-05-20T05:06:41;15.71;53.97
65876;HTU21D;52657;51.128;5.938;2023-05-20T05:09:07;15.55;54.56
65876;HTU21D;52657;51.128;5.938;2023-05-20T05:11:34;15.55;54.94
65876;HTU21D;52657;51.128;5.938;2023-05-20T05:14:01;15.53;55.10
65876;HTU21D;52657;51.128;5.938;2023-05-20T05:16:26;15.54;55.30
65876;HTU21D;52657;51.128;5.938;2023-05-20T05:18:52;15.55;55.40
65876;HTU21D;52657;51.128;5.938;2023-05-20T05:21:18;15.55;55.45
65876;HTU21D;52657;51.128;5.938;2023-05-20T05:23:45;15.59;55.44
65876;HTU21D;52657;51.128;5.938;2023-05-20T05:26:11;15.63;55.38
65876;HTU21D;52657;51.128;5.938;2023-05-20T05:28:37;15.59;55.62
65876;HTU21D;52657;51.128;5.938;2023-05-20T05:31:03;15.67;55.72
65876;HTU21D;52657;51.128;5.938;2023-05-20T05:33:29;15.67;55.74
65876;HTU21D;52657;51.128;5.938;2023-05-20T05:35:55;15.70;55.65
65876;HTU21D;52657;51.128;5.938;2023-05-20T05:38:24;15.80;55.56
65876;HTU21D;52657;51.128;5.938;2023-05-20T05:40:50;15.88;55.37
65876;HTU21D;52657;51.128;5.938;2023-05-20T05:43:16;15.92;55.30
65876;HTU21D;52657;51.128;5.938;2023-05-20T05:45:43;15.92;55.36
65876;HTU21D;52657;51.128;5.938;2023-05-20T05:48:09;16.01;55.31
65876;HTU21D;52657;51.128;5.938;2023-05-20T05:50:34;16.04;55.17
65876;HTU21D;52657;51.128;5.938;2023-05-20T05:53:00;16.04;55.34
65876;HTU21D;52657;51.128;5.938;2023-05-20T05:55:26;16.11;55.54
65876;HTU21D;52657;51.128;5.938;2023-05-20T05:57:53;16.41;55.52
65876;HTU21D;52657;51.128;5.938;2023-05-20T06:00:19;17.14;53.62
65876;HTU21D;52657;51.128;5.938;2023-05-20T06:02:54;18.00;51.45
65876;HTU21D;52657;51.128;5.938;2023-05-20T06:05:32;18.91;48.73
65876;HTU21D;52657;51.128;5.938;2023-05-20T06:08:00;19.30;47.61
65876;HTU21D;52657;51.128;5.938;2023-05-20T06:10:25;19.86;46.58
65876;HTU21D;52657;51.128;5.938;2023-05-20T06:12:51;20.49;44.87
65876;HTU21D;52657;51.128;5.938;2023-05-20T06:15:17;20.92;44.00
65876;HTU21D;52657;51.128;5.938;2023-05-20T06:17:44;21.42;42.17
65876;HTU21D;52657;51.128;5.938;2023-05-20T06:20:18;21.60;41.69
65876;HTU21D;52657;51.128;5.938;2023-05-20T06:22:43;21.88;40.83
65876;HTU21D;52657;51.128;5.938;2023-05-20T06:25:11;22.17;40.77
65876;HTU21D;52657;51.128;5.938;2023-05-20T06:27:37;22.34;39.49
65876;HTU21D;52657;51.128;5.938;2023-05-20T06:30:06;22.28;38.88
65876;HTU21D;52657;51.128;5.938;2023-05-20T06:32:32;22.16;39.11
65876;HTU21D;52657;51.128;5.938;2023-05-20T06:34:57;22.06;39.81
65876;HTU21D;52657;51.128;5.938;2023-05-20T06:37:25;22.23;39.47
65876;HTU21D;52657;51.128;5.938;2023-05-20T06:39:52;22.31;39.13
65876;HTU21D;52657;51.128;5.938;2023-05-20T06:42:21;22.60;38.80
65876;HTU21D;52657;51.128;5.938;2023-05-20T06:45:01;22.68;38.05
65876;HTU21D;52657;51.128;5.938;2023-05-20T06:47:33;22.67;37.81
65876;HTU21D;52657;51.128;5.938;2023-05-20T06:49:59;22.46;38.01
65876;HTU21D;52657;51.128;5.938;2023-05-20T06:52:28;22.37;38.48
65876;HTU21D;52657;51.128;5.938;2023-05-20T06:54:54;22.26;38.37
65876;HTU21D;52657;51.128;5.938;2023-05-20T06:57:20;22.25;39.04
65876;HTU21D;52657;51.128;5.938;2023-05-20T06:59:46;22.37;38.49
65876;HTU21D;52657;51.128;5.938;2023-05-20T07:02:13;22.40;38.89
65876;HTU21D;52657;51.128;5.938;2023-05-20T07:04:39;22.73;38.40
65876;HTU21D;52657;51.128;5.938;2023-05-20T07:07:05;22.77;38.01
65876;HTU21D;52657;51.128;5.938;2023-05-20T07:09:31;22.81;37.88
65876;HTU21D;52657;51.128;5.938;2023-05-20T07:11:57;23.02;37.53
65876;HTU21D;52657;51.128;5.938;2023-05-20T07:14:25;23.16;37.53
65876;HTU21D;52657;51.128;5.938;2023-05-20T07:17:04;23.45;36.67
65876;HTU21D;52657;51.128;5.938;2023-05-20T07:19:31;23.57;35.98
65876;HTU21D;52657;51.128;5.938;2023-05-20T07:22:01;23.44;36.32
65876;HTU21D;52657;51.128;5.938;2023-05-20T07:24:33;23.69;36.66
65876;HTU21D;52657;51.128;5.938;2023-05-20T07:27:02;23.92;35.38
65876;HTU21D;52657;51.128;5.938;2023-05-20T07:29:28;23.67;35.49
65876;HTU21D;52657;51.128;5.938;2023-05-20T07:31:54;23.65;36.21
65876;HTU21D;52657;51.128;5.938;2023-05-20T07:34:19;23.76;36.01
65876;HTU21D;52657;51.128;5.938;2023-05-20T07:36:47;23.88;35.43
65876;HTU21D;52657;51.128;5.938;2023-05-20T07:39:14;23.90;35.75
65876;HTU21D;52657;51.128;5.938;2023-05-20T07:41:40;24.26;34.41
65876;HTU21D;52657;51.128;5.938;2023-05-20T07:44:06;24.11;34.86
65876;HTU21D;52657;51.128;5.938;2023-05-20T07:46:38;24.12;34.79
65876;HTU21D;52657;51.128;5.938;2023-05-20T07:49:05;24.02;34.73
65876;HTU21D;52657;51.128;5.938;2023-05-20T07:51:32;23.88;34.76
65876;HTU21D;52657;51.128;5.938;2023-05-20T07:53:59;23.61;35.74
65876;HTU21D;52657;51.128;5.938;2023-05-20T07:56:25;23.74;35.83
65876;HTU21D;52657;51.128;5.938;2023-05-20T07:58:56;23.80;34.79
65876;HTU21D;52657;51.128;5.938;2023-05-20T08:01:29;23.51;35.92
65876;HTU21D;52657;51.128;5.938;2023-05-20T08:03:55;23.46;35.90
65876;HTU21D;52657;51.128;5.938;2023-05-20T08:06:23;23.34;35.60
65876;HTU21D;52657;51.128;5.938;2023-05-20T08:08:49;23.31;36.49
65876;HTU21D;52657;51.128;5.938;2023-05-20T08:11:21;23.54;35.76
65876;HTU21D;52657;51.128;5.938;2023-05-20T08:13:47;23.56;35.64
65876;HTU21D;52657;51.128;5.938;2023-05-20T08:16:14;23.44;35.79
65876;HTU21D;52657;51.128;5.938;2023-05-20T08:18:42;23.50;35.89
65876;HTU21D;52657;51.128;5.938;2023-05-20T08:21:08;23.49;35.59
65876;HTU21D;52657;51.128;5.938;2023-05-20T08:23:35;23.43;35.85
65876;HTU21D;52657;51.128;5.938;2023-05-20T08:26:01;23.52;35.75
65876;HTU21D;52657;51.128;5.938;2023-05-20T08:28:30;23.53;36.03
65876;HTU21D;52657;51.128;5.938;2023-05-20T08:30:56;23.67;35.61
65876;HTU21D;52657;51.128;5.938;2023-05-20T08:33:23;23.73;35.81
65876;HTU21D;52657;51.128;5.938;2023-05-20T08:35:48;23.71;35.68
65876;HTU21D;52657;51.128;5.938;2023-05-20T08:38:14;23.81;35.36
65876;HTU21D;52657;51.128;5.938;2023-05-20T08:40:40;23.80;34.73
65876;HTU21D;52657;51.128;5.938;2023-05-20T08:43:06;23.89;34.96
65876;HTU21D;52657;51.128;5.938;2023-05-20T08:45:33;24.01;34.68
65876;HTU21D;52657;51.128;5.938;2023-05-20T08:48:04;23.96;34.73
65876;HTU21D;52657;51.128;5.938;2023-05-20T08:50:30;24.03;35.13
65876;HTU21D;52657;51.128;5.938;2023-05-20T08:52:56;24.02;34.61
65876;HTU21D;52657;51.128;5.938;2023-05-20T08:55:32;23.86;35.26
65876;HTU21D;52657;51.128;5.938;2023-05-20T08:58:02;23.80;34.47
65876;HTU21D;52657;51.128;5.938;2023-05-20T09:00:28;23.61;35.21
65876;HTU21D;52657;51.128;5.938;2023-05-20T09:02:55;23.52;35.75
65876;HTU21D;52657;51.128;5.938;2023-05-20T09:05:21;23.69;35.60
65876;HTU21D;52657;51.128;5.938;2023-05-20T09:07:47;23.74;35.42
65876;HTU21D;52657;51.128;5.938;2023-05-20T09:10:13;23.69;35.14
65876;HTU21D;52657;51.128;5.938;2023-05-20T09:12:39;23.56;35.63
65876;HTU21D;52657;51.128;5.938;2023-05-20T09:15:05;23.51;35.36
65876;HTU21D;52657;51.128;5.938;2023-05-20T09:17:34;23.28;36.00
65876;HTU21D;52657;51.128;5.938;2023-05-20T09:20:05;23.23;36.46
65876;HTU21D;52657;51.128;5.938;2023-05-20T09:22:32;23.14;36.76
65876;HTU21D;52657;51.128;5.938;2023-05-20T09:25:01;23.16;36.56
65876;HTU21D;52657;51.128;5.938;2023-05-20T09:27:27;23.11;36.95
65876;HTU21D;52657;51.128;5.938;2023-05-20T09:29:52;23.08;36.95
65876;HTU21D;52657;51.128;5.938;2023-05-20T09:32:20;23.12;37.31
65876;HTU21D;52657;51.128;5.938;2023-05-20T09:34:48;23.31;36.95
65876;HTU21D;52657;51.128;5.938;2023-05-20T09:37:17;23.37;36.89
65876;HTU21D;52657;51.128;5.938;2023-05-20T09:39:55;23.49;36.69
65876;HTU21D;52657;51.128;5.938;2023-05-20T09:43:04;23.44;36.60
65876;HTU21D;52657;51.128;5.938;2023-05-20T09:45:30;23.27;36.59
65876;HTU21D;52657;51.128;5.938;2023-05-20T09:47:56;23.14;37.25
65876;HTU21D;52657;51.128;5.938;2023-05-20T09:50:23;23.10;37.56
65876;HTU21D;52657;51.128;5.938;2023-05-20T09:52:51;23.01;38.02
65876;HTU21D;52657;51.128;5.938;2023-05-20T09:55:18;22.97;38.22
65876;HTU21D;52657;51.128;5.938;2023-05-20T09:57:45;23.01;38.01
65876;HTU21D;52657;51.128;5.938;2023-05-20T10:00:12;23.03;38.14
65876;HTU21D;52657;51.128;5.938;2023-05-20T10:02:48;23.08;38.17
65876;HTU21D;52657;51.128;5.938;2023-05-20T10:05:22;23.21;38.24
65876;HTU21D;52657;51.128;5.938;2023-05-20T10:13:42;23.61;37.43
65876;HTU21D;52657;51.128;5.938;2023-05-20T10:19:27;23.60;37.21
65876;HTU21D;52657;51.128;5.938;2023-05-20T10:22:01;23.64;37.90
65876;HTU21D;52657;51.128;5.938;2023-05-20T10:24:35;23.83;37.53
65876;HTU21D;52657;51.128;5.938;2023-05-20T10:27:06;23.85;37.82
65876;HTU21D;52657;51.128;5.938;2023-05-20T10:29:49;24.04;37.35
65876;HTU21D;52657;51.128;5.938;2023-05-20T10:32:25;24.23;36.83
65876;HTU21D;52657;51.128;5.938;2023-05-20T10:34:52;24.23;37.26
65876;HTU21D;52657;51.128;5.938;2023-05-20T10:37:23;24.30;37.11
65876;HTU21D;52657;51.128;5.938;2023-05-20T10:39:50;24.25;37.01
65876;HTU21D;52657;51.128;5.938;2023-05-20T10:42:15;24.19;36.90
65876;HTU21D;52657;51.128;5.938;2023-05-20T10:44:51;24.05;37.27
65876;HTU21D;52657;51.128;5.938;2023-05-20T10:47:17;23.84;37.78
65876;HTU21D;52657;51.128;5.938;2023-05-20T10:49:45;23.88;37.55
65876;HTU21D;52657;51.128;5.938;2023-05-20T10:52:18;23.82;37.79
65876;HTU21D;52657;51.128;5.938;2023-05-20T10:54:59;23.88;38.04
65876;HTU21D;52657;51.128;5.938;2023-05-20T10:57:27;23.91;37.88
65876;HTU21D;52657;51.128;5.938;2023-05-20T10:59:54;23.97;37.56
65876;HTU21D;52657;51.128;5.938;2023-05-20T11:02:23;23.91;37.88
65876;HTU21D;52657;51.128;5.938;2023-05-20T11:05:01;23.86;38.14
65876;HTU21D;52657;51.128;5.938;2023-05-20T11:07:29;23.90;37.80
65876;HTU21D;52657;51.128;5.938;2023-05-20T11:09:58;24.01;37.94
65876;HTU21D;52657;51.128;5.938;2023-05-20T11:12:26;24.00;38.17
65876;HTU21D;52657;51.128;5.938;2023-05-20T11:14:56;24.01;38.13
65876;HTU21D;52657;51.128;5.938;2023-05-20T11:17:21;24.09;37.64
65876;HTU21D;52657;51.128;5.938;2023-05-20T11:19:47;24.23;37.83
65876;HTU21D;52657;51.128;5.938;2023-05-20T11:22:13;24.27;37.12
65876;HTU21D;52657;51.128;5.938;2023-05-20T11:24:39;24.27;37.14
65876;HTU21D;52657;51.128;5.938;2023-05-20T11:27:05;24.30;37.40
65876;HTU21D;52657;51.128;5.938;2023-05-20T11:29:31;24.32;37.31
65876;HTU21D;52657;51.128;5.938;2023-05-20T11:31:58;24.28;37.27
65876;HTU21D;52657;51.128;5.938;2023-05-20T11:34:37;24.28;37.19
65876;HTU21D;52657;51.128;5.938;2023-05-20T11:37:08;24.28;37.42
65876;HTU21D;52657;51.128;5.938;2023-05-20T11:39:34;24.42;37.05
65876;HTU21D;52657;51.128;5.938;2023-05-20T11:42:00;24.44;36.96
65876;HTU21D;52657;51.128;5.938;2023-05-20T11:44:25;24.14;37.41
65876;HTU21D;52657;51.128;5.938;2023-05-20T11:47:01;23.90;38.29
65876;HTU21D;52657;51.128;5.938;2023-05-20T11:49:29;23.97;38.30
65876;HTU21D;52657;51.128;5.938;2023-05-20T11:52:08;24.02;37.85
65876;HTU21D;52657;51.128;5.938;2023-05-20T11:54:34;23.81;38.58
65876;HTU21D;52657;51.128;5.938;2023-05-20T11:57:01;23.85;38.70
65876;HTU21D;52657;51.128;5.938;2023-05-20T11:59:26;23.75;39.05
65876;HTU21D;52657;51.128;5.938;2023-05-20T12:01:52;23.73;39.01
65876;HTU21D;52657;51.128;5.938;2023-05-20T12:04:18;23.70;39.04
65876;HTU21D;52657;51.128;5.938;2023-05-20T12:06:43;23.61;39.21
65876;HTU21D;52657;51.128;5.938;2023-05-20T12:09:10;23.65;39.68
65876;HTU21D;52657;51.128;5.938;2023-05-20T12:11:37;23.75;39.06
65876;HTU21D;52657;51.128;5.938;2023-05-20T12:14:06;23.71;39.07
65876;HTU21D;52657;51.128;5.938;2023-05-20T12:16:34;23.69;39.12
65876;HTU21D;52657;51.128;5.938;2023-05-20T12:18:59;23.71;39.53
65876;HTU21D;52657;51.128;5.938;2023-05-20T12:21:26;23.85;39.59
65876;HTU21D;52657;51.128;5.938;2023-05-20T12:23:54;23.90;39.58
65876;HTU21D;52657;51.128;5.938;2023-05-20T12:26:24;23.94;39.49
65876;HTU21D;52657;51.128;5.938;2023-05-20T12:28:51;24.05;39.15
65876;HTU21D;52657;51.128;5.938;2023-05-20T12:31:18;23.96;39.04
65876;HTU21D;52657;51.128;5.938;2023-05-20T12:33:43;23.82;39.44
65876;HTU21D;52657;51.128;5.938;2023-05-20T12:36:09;23.89;39.78
65876;HTU21D;52657;51.128;5.938;2023-05-20T12:38:35;24.06;39.59
65876;HTU21D;52657;51.128;5.938;2023-05-20T12:41:07;24.04;39.31
65876;HTU21D;52657;51.128;5.938;2023-05-20T12:43:34;24.08;38.66
65876;HTU21D;52657;51.128;5.938;2023-05-20T12:46:02;23.94;39.33
65876;HTU21D;52657;51.128;5.938;2023-05-20T12:48:30;23.85;39.72
65876;HTU21D;52657;51.128;5.938;2023-05-20T12:50:56;23.97;39.55
65876;HTU21D;52657;51.128;5.938;2023-05-20T12:53:27;23.96;39.17
65876;HTU21D;52657;51.128;5.938;2023-05-20T12:55:56;24.06;39.17
65876;HTU21D;52657;51.128;5.938;2023-05-20T12:58:22;24.20;38.98
65876;HTU21D;52657;51.128;5.938;2023-05-20T13:00:47;24.46;38.97
65876;HTU21D;52657;51.128;5.938;2023-05-20T13:03:13;24.54;38.19
65876;HTU21D;52657;51.128;5.938;2023-05-20T13:05:39;24.62;38.30
65876;HTU21D;52657;51.128;5.938;2023-05-20T13:08:04;24.56;38.38
65876;HTU21D;52657;51.128;5.938;2023-05-20T13:10:33;24.43;38.69
65876;HTU21D;52657;51.128;5.938;2023-05-20T13:13:04;24.34;38.62
65876;HTU21D;52657;51.128;5.938;2023-05-20T13:15:33;24.30;38.70
65876;HTU21D;52657;51.128;5.938;2023-05-20T13:17:59;24.27;38.83
65876;HTU21D;52657;51.128;5.938;2023-05-20T13:20:28;24.15;38.80
65876;HTU21D;52657;51.128;5.938;2023-05-20T13:22:54;24.04;39.00
65876;HTU21D;52657;51.128;5.938;2023-05-20T13:25:20;23.85;39.31
65876;HTU21D;52657;51.128;5.938;2023-05-20T13:27:46;23.91;39.81
65876;HTU21D;52657;51.128;5.938;2023-05-20T13:30:11;23.97;40.26
65876;HTU21D;52657;51.128;5.938;2023-05-20T13:32:40;24.01;39.85
65876;HTU21D;52657;51.128;5.938;2023-05-20T13:35:06;23.89;40.01
65876;HTU21D;52657;51.128;5.938;2023-05-20T13:37:32;23.82;39.91
65876;HTU21D;52657;51.128;5.938;2023-05-20T13:39:57;23.76;40.35
65876;HTU21D;52657;51.128;5.938;2023-05-20T13:42:23;23.74;40.73
65876;HTU21D;52657;51.128;5.938;2023-05-20T13:44:48;23.77;40.23
65876;HTU21D;52657;51.128;5.938;2023-05-20T13:47:14;23.69;40.51
65876;HTU21D;52657;51.128;5.938;2023-05-20T13:49:40;23.67;40.36
65876;HTU21D;52657;51.128;5.938;2023-05-20T13:52:05;23.70;40.62
65876;HTU21D;52657;51.128;5.938;2023-05-20T13:54:31;23.68;40.81
65876;HTU21D;52657;51.128;5.938;2023-05-20T13:56:56;23.67;40.68
65876;HTU21D;52657;51.128;5.938;2023-05-20T13:59:32;23.65;40.83
65876;HTU21D;52657;51.128;5.938;2023-05-20T14:01:59;23.71;40.67
65876;HTU21D;52657;51.128;5.938;2023-05-20T14:04:25;23.83;40.95
65876;HTU21D;52657;51.128;5.938;2023-05-20T14:06:53;23.84;40.78
65876;HTU21D;52657;51.128;5.938;2023-05-20T14:09:19;23.90;40.62
65876;HTU21D;52657;51.128;5.938;2023-05-20T14:11:45;23.97;40.42
65876;HTU21D;52657;51.128;5.938;2023-05-20T14:14:10;24.06;40.19
65876;HTU21D;52657;51.128;5.938;2023-05-20T14:16:36;24.00;40.34
65876;HTU21D;52657;51.128;5.938;2023-05-20T14:19:04;23.98;40.56
65876;HTU21D;52657;51.128;5.938;2023-05-20T14:21:30;23.83;40.21
65876;HTU21D;52657;51.128;5.938;2023-05-20T14:23:59;23.69;40.51
65876;HTU21D;52657;51.128;5.938;2023-05-20T14:26:25;23.60;40.88
65876;HTU21D;52657;51.128;5.938;2023-05-20T14:28:51;23.67;41.18
65876;HTU21D;52657;51.128;5.938;2023-05-20T14:31:16;23.70;40.97
65876;HTU21D;52657;51.128;5.938;2023-05-20T14:33:42;23.69;40.77
65876;HTU21D;52657;51.128;5.938;2023-05-20T14:36:08;23.82;40.38
65876;HTU21D;52657;51.128;5.938;2023-05-20T14:38:34;23.70;41.00
65876;HTU21D;52657;51.128;5.938;2023-05-20T14:41:00;23.72;41.10
65876;HTU21D;52657;51.128;5.938;2023-05-20T14:43:28;23.85;41.05
65876;HTU21D;52657;51.128;5.938;2023-05-20T14:45:55;23.96;40.48
65876;HTU21D;52657;51.128;5.938;2023-05-20T14:48:21;23.96;40.17
65876;HTU21D;52657;51.128;5.938;2023-05-20T14:50:46;23.89;40.50
65876;HTU21D;52657;51.128;5.938;2023-05-20T14:53:12;23.91;40.78
65876;HTU21D;52657;51.128;5.938;2023-05-20T14:55:38;23.88;40.53
65876;HTU21D;52657;51.128;5.938;2023-05-20T14:58:04;23.79;40.97
65876;HTU21D;52657;51.128;5.938;2023-05-20T15:00:29;23.72;40.92
65876;HTU21D;52657;51.128;5.938;2023-05-20T15:02:57;23.62;40.80
65876;HTU21D;52657;51.128;5.938;2023-05-20T15:05:22;23.46;41.07
65876;HTU21D;52657;51.128;5.938;2023-05-20T15:07:51;23.36;41.65
65876;HTU21D;52657;51.128;5.938;2023-05-20T15:10:17;23.49;41.69
65876;HTU21D;52657;51.128;5.938;2023-05-20T15:12:45;23.46;41.39
65876;HTU21D;52657;51.128;5.938;2023-05-20T15:15:14;23.52;41.78
65876;HTU21D;52657;51.128;5.938;2023-05-20T15:17:50;23.59;41.42
65876;HTU21D;52657;51.128;5.938;2023-05-20T15:20:22;23.54;41.07
65876;HTU21D;52657;51.128;5.938;2023-05-20T15:22:47;23.52;41.17
65876;HTU21D;52657;51.128;5.938;2023-05-20T15:25:13;23.46;41.20
65876;HTU21D;52657;51.128;5.938;2023-05-20T15:27:40;23.46;41.11